Time;durP1;ratioP1;P1;durP2;ratioP2;P2;SDS_P1;SDS_P2;PMS_P1;PMS_P2;Temp;Humidity;BMP_temperature;BMP_pressure;BME280_temperature;BME280_humidity;BME280_pressure;Samples;Min_cycle;Max_cycle;Signal;HPM_P1;HPM_P2
2023/02/12 00:01:09;;;;;;;14.70;4.50;;;8.20;99.90;;;;;;5075349;28;20553;-62
2023/02/12 00:03:35;;;;;;;16.40;4.57;;;8.20;99.90;;;;;;5078769;28;20481;-62
2023/02/12 00:06:04;;;;;;;16.70;4.60;;;8.20;99.90;;;;;;5074880;28;20940;-63
2023/02/12 00:08:31;;;;;;;5.90;3.50;;;8.20;99.90;;;;;;5075788;28;20501;-63
2023/02/12 00:10:58;;;;;;;13.13;4.60;;;8.20;99.90;;;;;;5076083;28;20546;-62
2023/02/12 00:13:25;;;;;;;9.80;3.90;;;8.20;99.90;;;;;;5078024;28;20557;-63
2023/02/12 00:15:52;;;;;;;18.33;4.53;;;8.20;99.90;;;;;;5079272;28;20525;-62
2023/02/12 00:18:19;;;;;;;16.33;4.00;;;8.20;99.90;;;;;;5077115;28;20966;-61
2023/02/12 00:20:45;;;;;;;18.80;4.50;;;8.20;99.90;;;;;;5078910;28;20513;-61
2023/02/12 00:23:14;;;;;;;11.60;3.63;;;8.20;99.90;;;;;;5079359;28;20439;-62
2023/02/12 00:25:42;;;;;;;13.20;3.87;;;8.20;99.90;;;;;;5078432;28;21034;-58
2023/02/12 00:28:09;;;;;;;16.37;4.27;;;8.20;99.90;;;;;;5078691;28;20450;-61
2023/02/12 00:30:36;;;;;;;12.30;3.27;;;8.20;99.90;;;;;;5076974;28;20575;-59
2023/02/12 00:33:03;;;;;;;12.83;4.27;;;8.20;99.90;;;;;;5075020;28;20537;-62
2023/02/12 00:35:30;;;;;;;16.30;3.43;;;8.20;99.90;;;;;;5076298;28;20525;-61
2023/02/12 00:37:57;;;;;;;8.33;3.07;;;8.10;99.90;;;;;;5077113;28;21128;-61
2023/02/12 00:40:25;;;;;;;13.60;3.30;;;8.10;99.90;;;;;;5078637;28;20480;-64
2023/02/12 00:42:52;;;;;;;6.20;2.60;;;8.10;99.90;;;;;;5076863;28;20950;-62
2023/02/12 00:45:19;;;;;;;22.60;4.30;;;8.10;99.90;;;;;;5077072;28;20431;-61
2023/02/12 00:47:46;;;;;;;8.53;4.27;;;8.00;99.90;;;;;;5076907;28;20442;-62
2023/02/12 00:50:13;;;;;;;11.63;3.73;;;8.00;99.90;;;;;;5076608;28;20486;-62
2023/02/12 00:52:40;;;;;;;14.60;4.60;;;8.00;99.90;;;;;;5074695;28;20450;-62
2023/02/12 00:55:07;;;;;;;16.43;5.27;;;7.90;99.90;;;;;;5075520;28;20472;-63
2023/02/12 00:57:35;;;;;;;17.83;3.97;;;8.00;99.90;;;;;;5075388;28;20442;-60
2023/02/12 01:00:02;;;;;;;11.77;4.30;;;8.00;99.90;;;;;;5074567;28;20470;-64
2023/02/12 01:02:29;;;;;;;15.43;4.20;;;8.00;99.90;;;;;;5074977;28;20510;-62
2023/02/12 01:04:57;;;;;;;12.90;3.63;;;8.00;99.90;;;;;;5076415;28;20446;-63
2023/02/12 01:07:24;;;;;;;14.07;5.50;;;8.10;99.90;;;;;;5075508;28;20536;-62
2023/02/12 01:09:51;;;;;;;14.80;4.80;;;8.20;99.90;;;;;;5073906;28;20557;-62
2023/02/12 01:12:18;;;;;;;16.00;3.33;;;8.20;99.90;;;;;;5077482;28;20922;-61
2023/02/12 01:14:46;;;;;;;8.93;3.67;;;8.30;99.90;;;;;;5075518;28;20443;-62
2023/02/12 01:17:13;;;;;;;8.07;5.10;;;8.30;99.90;;;;;;5077272;28;20505;-63
2023/02/12 01:19:39;;;;;;;6.50;3.03;;;8.40;99.90;;;;;;5076203;28;20490;-61
2023/02/12 01:22:06;;;;;;;11.47;3.40;;;8.40;99.90;;;;;;5075992;28;20469;-63
2023/02/12 01:24:33;;;;;;;11.97;4.10;;;8.40;99.90;;;;;;5077917;28;20537;-63
2023/02/12 01:27:03;;;;;;;12.13;3.97;;;8.40;99.90;;;;;;5087081;28;20523;-61
2023/02/12 01:29:35;;;;;;;10.20;3.90;;;8.40;99.90;;;;;;5101741;28;20418;-59
2023/02/12 01:32:07;;;;;;;8.83;3.63;;;8.40;99.90;;;;;;5101770;28;20434;-60
2023/02/12 01:34:39;;;;;;;17.47;4.00;;;8.40;99.90;;;;;;5101804;28;20421;-62
2023/02/12 01:37:05;;;;;;;14.83;3.40;;;8.40;99.90;;;;;;5101817;28;20436;-58
2023/02/12 01:39:32;;;;;;;8.67;3.30;;;8.40;99.90;;;;;;5086611;28;20488;-62
2023/02/12 01:41:59;;;;;;;18.87;4.07;;;8.40;99.90;;;;;;5079625;28;20434;-62
2023/02/12 01:44:29;;;;;;;6.47;3.60;;;8.40;99.90;;;;;;5078736;28;20485;-62
2023/02/12 01:46:58;;;;;;;12.77;4.10;;;8.40;99.90;;;;;;5078709;28;20553;-64
2023/02/12 01:49:31;;;;;;;12.33;3.93;;;8.40;99.90;;;;;;5078886;28;20831;-63
2023/02/12 01:52:04;;;;;;;11.73;3.60;;;8.40;99.90;;;;;;5078934;28;20426;-61
2023/02/12 01:54:33;;;;;;;6.33;3.30;;;8.40;99.90;;;;;;5078392;28;20430;-63
2023/02/12 01:57:02;;;;;;;7.30;5.27;;;8.30;99.90;;;;;;5078862;28;20473;-63
2023/02/12 01:59:29;;;;;;;7.23;3.70;;;8.30;99.90;;;;;;5079077;28;20533;-63
2023/02/12 02:01:56;;;;;;;11.30;3.40;;;8.30;99.90;;;;;;5079059;28;20844;-63
2023/02/12 02:04:28;;;;;;;6.80;3.10;;;8.30;99.90;;;;;;5078403;28;20453;-63
2023/02/12 02:06:58;;;;;;;15.30;3.70;;;8.30;99.90;;;;;;5078574;28;20797;-63
2023/02/12 02:09:26;;;;;;;14.43;3.97;;;8.30;99.90;;;;;;5078808;28;20565;-63
2023/02/12 02:14:38;;;;;;;5.37;3.80;;;8.30;99.90;;;;;;5078478;28;20504;-62
2023/02/12 02:17:20;;;;;;;10.50;4.03;;;8.30;99.90;;;;;;5078864;28;20955;-63
2023/02/12 02:20:35;;;;;;;17.40;3.50;;;8.30;99.90;;;;;;5078767;28;20514;-63
2023/02/12 02:23:25;;;;;;;16.37;4.07;;;8.30;99.90;;;;;;5035648;28;20539;-62
2023/02/12 02:26:25;;;;;;;9.60;3.53;;;8.20;99.90;;;;;;5076469;28;20965;-62
2023/02/12 02:29:13;;;;;;;3.70;1.80;;;8.30;99.90;;;;;;5069173;28;20965;-61
2023/02/12 02:31:47;;;;;;;8.83;2.53;;;8.30;99.90;;;;;;5099880;28;20454;-60
2023/02/12 02:34:21;;;;;;;12.83;2.87;;;8.30;99.90;;;;;;5099616;28;20434;-55
2023/02/12 02:36:53;;;;;;;7.43;2.87;;;8.30;99.90;;;;;;5100687;28;20406;-59
2023/02/12 02:39:30;;;;;;;4.80;2.73;;;8.20;99.90;;;;;;5100452;28;20438;-64
2023/02/12 02:42:01;;;;;;;8.97;3.53;;;8.20;99.90;;;;;;5100527;28;20437;-59
2023/02/12 02:44:37;;;;;;;9.67;3.70;;;8.20;99.90;;;;;;5100516;28;20406;-57
2023/02/12 02:47:10;;;;;;;5.90;2.43;;;8.20;99.90;;;;;;5100436;28;20478;-58
2023/02/12 02:49:43;;;;;;;11.63;2.77;;;8.20;99.90;;;;;;5100372;28;20403;-56
2023/02/12 02:52:16;;;;;;;17.40;4.13;;;8.20;99.90;;;;;;5100211;28;20441;-60
2023/02/12 02:54:50;;;;;;;11.90;3.50;;;8.20;99.90;;;;;;5100227;28;20425;-60
2023/02/12 02:57:21;;;;;;;10.47;3.30;;;8.20;99.90;;;;;;5099962;28;20430;-55
2023/02/12 02:59:55;;;;;;;6.17;2.90;;;8.20;99.90;;;;;;5100185;28;20431;-60
2023/02/12 03:02:27;;;;;;;9.63;5.80;;;8.20;99.90;;;;;;5100119;28;20402;-58
2023/02/12 03:05:00;;;;;;;5.70;2.33;;;8.20;99.90;;;;;;5100073;28;20458;-62
2023/02/12 03:07:32;;;;;;;6.27;2.33;;;8.20;99.90;;;;;;5099985;28;20434;-61
2023/02/12 03:10:04;;;;;;;8.50;2.97;;;8.10;99.90;;;;;;5099801;28;20454;-64
2023/02/12 03:12:37;;;;;;;10.80;3.50;;;8.10;99.90;;;;;;5099849;28;20453;-65
2023/02/12 03:15:14;;;;;;;7.53;2.87;;;8.10;99.90;;;;;;5099921;28;20433;-59
2023/02/12 03:17:46;;;;;;;9.23;2.37;;;8.10;99.90;;;;;;5099747;28;20470;-61
2023/02/12 03:20:18;;;;;;;8.53;3.17;;;8.20;99.90;;;;;;5099815;28;20410;-61
2023/02/12 03:22:51;;;;;;;8.47;3.70;;;8.10;99.90;;;;;;5099597;28;20463;-59
2023/02/12 03:25:22;;;;;;;9.20;3.43;;;8.10;99.90;;;;;;5099720;28;20411;-60
2023/02/12 03:27:59;;;;;;;13.57;2.33;;;8.10;99.90;;;;;;5099563;28;20410;-55
2023/02/12 03:30:37;;;;;;;11.83;3.20;;;8.10;99.90;;;;;;5099515;28;20438;-64
2023/02/12 03:33:17;;;;;;;12.20;2.93;;;8.10;99.90;;;;;;5082549;28;20427;-59
2023/02/12 03:35:52;;;;;;;15.13;4.03;;;8.00;99.90;;;;;;5076214;28;20488;-64
2023/02/12 03:38:26;;;;;;;7.57;2.93;;;8.00;99.90;;;;;;5075028;28;20882;-63
2023/02/12 03:40:59;;;;;;;16.67;3.40;;;8.00;99.90;;;;;;5074825;28;20487;-63
2023/02/12 03:43:31;;;;;;;10.53;2.40;;;8.00;99.90;;;;;;5075508;28;20514;-61
2023/02/12 03:46:03;;;;;;;4.30;2.97;;;8.00;99.90;;;;;;5074911;28;20435;-63
2023/02/12 03:48:38;;;;;;;11.93;3.77;;;8.00;99.90;;;;;;5075150;28;20521;-61
2023/02/12 03:51:13;;;;;;;9.03;3.00;;;8.00;99.90;;;;;;5076388;28;20477;-60
2023/02/12 03:53:41;;;;;;;14.93;3.97;;;8.00;99.90;;;;;;5075239;28;20470;-63
2023/02/12 03:56:12;;;;;;;7.93;3.23;;;8.00;99.90;;;;;;5074712;28;20481;-63
2023/02/12 03:58:42;;;;;;;14.57;4.83;;;8.00;99.90;;;;;;5076666;28;20553;-62
2023/02/12 04:01:10;;;;;;;5.03;2.60;;;8.00;99.90;;;;;;5076660;28;20438;-63
2023/02/12 04:03:39;;;;;;;11.20;3.40;;;8.00;99.90;;;;;;5076505;28;20974;-61
2023/02/12 04:06:17;;;;;;;13.87;3.00;;;8.00;99.90;;;;;;5076978;28;20563;-62
2023/02/12 04:08:44;;;;;;;17.90;4.93;;;7.90;99.90;;;;;;5079611;28;20807;-63
2023/02/12 04:11:25;;;;;;;12.40;3.07;;;7.90;99.90;;;;;;5078399;28;21082;-62
2023/02/12 04:14:07;;;;;;;19.17;4.67;;;7.90;99.90;;;;;;5074548;28;20468;-64
2023/02/12 04:16:41;;;;;;;20.20;4.27;;;7.80;99.90;;;;;;5074776;28;20441;-63
2023/02/12 04:19:13;;;;;;;25.67;4.40;;;7.90;99.90;;;;;;5074844;28;20522;-62
2023/02/12 04:21:50;;;;;;;14.00;4.27;;;7.80;99.90;;;;;;5074471;28;20433;-63
2023/02/12 04:24:24;;;;;;;15.30;3.70;;;7.70;99.90;;;;;;5074714;28;20466;-64
2023/02/12 04:26:55;;;;;;;7.83;3.87;;;7.80;99.90;;;;;;5074439;28;20445;-62
2023/02/12 04:29:28;;;;;;;11.30;5.30;;;7.80;99.90;;;;;;5074352;28;20598;-63
2023/02/12 04:32:03;;;;;;;11.97;3.40;;;7.80;99.90;;;;;;5074568;28;20474;-62
2023/02/12 04:34:41;;;;;;;9.07;2.73;;;7.70;99.90;;;;;;5074296;28;20449;-62
2023/02/12 04:37:15;;;;;;;5.77;3.03;;;7.70;99.90;;;;;;5074644;28;20437;-62
2023/02/12 04:39:43;;;;;;;15.03;2.67;;;7.70;99.90;;;;;;5074283;28;20454;-65
2023/02/12 04:42:11;;;;;;;14.23;4.00;;;7.70;99.90;;;;;;5074168;28;20557;-62
2023/02/12 04:44:40;;;;;;;12.00;3.30;;;7.70;99.90;;;;;;5074244;28;20546;-63
2023/02/12 04:47:06;;;;;;;6.50;2.50;;;7.60;99.90;;;;;;5074120;28;20443;-63
2023/02/12 04:49:35;;;;;;;10.70;2.77;;;7.60;99.90;;;;;;5074487;28;20444;-63
2023/02/12 04:52:01;;;;;;;11.93;3.80;;;7.60;99.90;;;;;;5074079;28;20577;-61
2023/02/12 04:54:28;;;;;;;3.80;2.60;;;7.70;99.90;;;;;;5074357;28;20477;-63
2023/02/12 04:56:55;;;;;;;13.57;3.73;;;7.60;99.90;;;;;;5075155;28;20986;-60
2023/02/12 04:59:22;;;;;;;14.13;3.50;;;7.60;99.90;;;;;;5078267;28;20525;-60
2023/02/12 05:01:49;;;;;;;13.10;4.07;;;7.60;99.90;;;;;;5077917;28;20549;-62
2023/02/12 05:04:17;;;;;;;4.70;2.70;;;7.50;99.90;;;;;;5078305;28;20469;-62
2023/02/12 05:06:46;;;;;;;26.70;3.37;;;7.50;99.90;;;;;;5078119;28;20491;-62
2023/02/12 05:09:15;;;;;;;15.00;2.60;;;7.50;99.90;;;;;;5077834;28;20442;-63
2023/02/12 05:11:43;;;;;;;10.80;4.27;;;7.60;99.90;;;;;;5077597;28;20969;-63
2023/02/12 05:14:10;;;;;;;5.93;2.90;;;7.60;99.90;;;;;;5078032;28;20440;-63
2023/02/12 05:16:37;;;;;;;19.47;4.53;;;7.60;99.90;;;;;;5077751;28;20950;-63
2023/02/12 05:19:04;;;;;;;16.67;3.73;;;7.60;99.90;;;;;;5077967;28;20556;-61
2023/02/12 05:21:30;;;;;;;8.87;3.10;;;7.60;99.90;;;;;;5077906;28;20442;-61
2023/02/12 05:24:00;;;;;;;14.23;3.73;;;7.60;99.90;;;;;;5077688;28;20450;-62
2023/02/12 05:26:27;;;;;;;15.20;4.33;;;7.60;99.90;;;;;;5077888;28;20423;-63
2023/02/12 05:28:54;;;;;;;13.50;2.83;;;7.70;99.90;;;;;;5077832;28;20533;-64
2023/02/12 05:31:21;;;;;;;10.77;2.93;;;7.60;99.90;;;;;;5077613;28;20485;-62
2023/02/12 05:33:49;;;;;;;12.23;3.30;;;7.70;99.90;;;;;;5077736;28;20528;-63
2023/02/12 05:36:17;;;;;;;19.07;3.20;;;7.70;99.90;;;;;;5077548;28;20528;-61
2023/02/12 05:38:44;;;;;;;12.63;3.77;;;7.70;99.90;;;;;;5077335;28;20431;-62
2023/02/12 05:41:15;;;;;;;8.57;2.80;;;7.70;99.90;;;;;;5077652;28;20762;-62
2023/02/12 05:43:43;;;;;;;14.83;3.33;;;7.70;99.90;;;;;;5077200;28;20558;-62
2023/02/12 05:46:11;;;;;;;11.40;3.20;;;7.70;99.90;;;;;;5077169;28;20536;-63
2023/02/12 05:48:38;;;;;;;8.40;4.73;;;7.70;99.90;;;;;;5077111;28;20561;-62
2023/02/12 05:51:07;;;;;;;14.33;3.73;;;7.70;99.90;;;;;;5077024;28;20458;-63
2023/02/12 05:53:35;;;;;;;9.33;2.83;;;7.70;99.90;;;;;;5077052;28;20442;-62
2023/02/12 05:56:10;;;;;;;13.43;2.90;;;7.70;99.90;;;;;;5076912;28;20475;-62
2023/02/12 05:58:39;;;;;;;9.03;5.10;;;7.70;99.90;;;;;;5077002;28;20469;-62
2023/02/12 06:01:10;;;;;;;13.20;2.80;;;7.70;99.90;;;;;;5077103;28;20462;-62
2023/02/12 06:03:37;;;;;;;6.30;2.33;;;7.80;99.90;;;;;;5076899;28;20525;-62
2023/02/12 06:06:04;;;;;;;12.53;2.50;;;7.80;99.90;;;;;;5077130;28;20930;-62
2023/02/12 06:08:31;;;;;;;11.20;3.73;;;7.80;99.90;;;;;;5076958;28;20480;-65
2023/02/12 06:11:01;;;;;;;14.67;3.13;;;7.80;99.90;;;;;;5077761;28;20970;-60
2023/02/12 06:13:28;;;;;;;13.90;3.53;;;7.70;99.90;;;;;;5076626;28;20481;-62
2023/02/12 06:15:56;;;;;;;12.73;3.33;;;7.80;99.90;;;;;;5076950;28;20554;-62
2023/02/12 06:18:23;;;;;;;17.77;4.30;;;7.80;99.90;;;;;;5076910;28;20452;-59
2023/02/12 06:20:50;;;;;;;9.27;3.70;;;7.80;99.90;;;;;;5083796;28;20443;-61
2023/02/12 06:23:17;;;;;;;10.37;3.60;;;7.80;99.90;;;;;;5095305;28;20547;-62
2023/02/12 06:25:49;;;;;;;10.17;4.13;;;7.80;99.90;;;;;;5094227;28;20534;-64
2023/02/12 06:28:18;;;;;;;18.43;4.03;;;7.90;99.90;;;;;;5094626;28;20911;-59
2023/02/12 06:30:45;;;;;;;11.43;4.30;;;7.90;99.90;;;;;;5093715;28;20459;-63
2023/02/12 06:33:13;;;;;;;10.93;3.33;;;7.90;99.90;;;;;;5076561;28;20555;-62
2023/02/12 06:35:40;;;;;;;14.23;3.70;;;7.90;99.90;;;;;;5076501;28;20537;-63
2023/02/12 06:38:08;;;;;;;11.30;3.90;;;7.90;99.90;;;;;;5076391;28;20505;-64
2023/02/12 06:40:34;;;;;;;15.70;3.60;;;7.90;99.90;;;;;;5076060;28;20796;-62
2023/02/12 06:43:01;;;;;;;11.63;3.77;;;8.00;99.90;;;;;;5076376;28;20913;-62
2023/02/12 06:45:28;;;;;;;11.40;3.57;;;8.00;99.90;;;;;;5076347;28;20839;-62
2023/02/12 06:47:55;;;;;;;14.03;2.90;;;7.90;99.90;;;;;;5076301;28;20474;-60
2023/02/12 06:50:24;;;;;;;18.10;4.30;;;8.00;99.90;;;;;;5076152;28;20844;-63
2023/02/12 06:52:51;;;;;;;15.83;3.70;;;8.00;99.90;;;;;;5075839;28;20482;-63
2023/02/12 06:55:18;;;;;;;6.13;3.17;;;8.00;99.90;;;;;;5075858;28;20537;-63
2023/02/12 06:57:45;;;;;;;14.83;3.97;;;8.00;99.90;;;;;;5076044;28;20535;-64
2023/02/12 07:00:13;;;;;;;12.73;4.70;;;8.00;99.90;;;;;;5076008;28;20526;-63
2023/02/12 07:02:39;;;;;;;6.80;3.23;;;8.00;99.90;;;;;;5075869;28;20480;-64
2023/02/12 07:05:06;;;;;;;7.70;4.10;;;8.10;99.90;;;;;;5075609;28;20934;-63
2023/02/12 07:07:35;;;;;;;7.67;2.67;;;8.10;99.90;;;;;;5075670;28;20461;-62
2023/02/12 07:10:01;;;;;;;7.93;3.03;;;8.10;99.90;;;;;;5076587;28;20529;-62
2023/02/12 07:12:28;;;;;;;21.30;2.70;;;8.10;99.90;;;;;;5075685;28;20509;-60
2023/02/12 07:14:55;;;;;;;9.40;2.90;;;8.10;99.90;;;;;;5075705;28;20508;-64
2023/02/12 07:17:22;;;;;;;11.77;3.47;;;8.20;99.90;;;;;;5075740;28;20530;-63
2023/02/12 07:19:49;;;;;;;8.97;3.20;;;8.20;99.90;;;;;;5075156;28;20550;-64
2023/02/12 07:22:16;;;;;;;12.90;4.30;;;8.20;99.90;;;;;;5075648;28;20519;-61
2023/02/12 07:24:44;;;;;;;6.03;2.57;;;8.20;99.90;;;;;;5075495;28;20466;-62
2023/02/12 07:27:11;;;;;;;5.93;2.97;;;8.20;99.90;;;;;;5075276;28;20450;-64
2023/02/12 07:29:40;;;;;;;11.90;3.53;;;8.20;99.90;;;;;;5098345;28;20458;-57
2023/02/12 07:32:15;;;;;;;13.60;3.33;;;8.20;99.90;;;;;;5099476;28;20449;-61
2023/02/12 07:34:42;;;;;;;8.63;2.97;;;8.20;99.90;;;;;;5099462;28;20438;-57
2023/02/12 07:37:09;;;;;;;14.70;3.97;;;8.20;99.90;;;;;;5099566;28;20427;-59
2023/02/12 07:39:37;;;;;;;16.27;4.23;;;8.20;99.90;;;;;;5099325;28;20438;-61
2023/02/12 07:42:07;;;;;;;5.17;2.60;;;8.30;99.90;;;;;;5099461;28;20407;-62
2023/02/12 07:44:34;;;;;;;13.33;3.70;;;8.30;99.90;;;;;;5099345;28;20431;-61
2023/02/12 07:47:02;;;;;;;8.80;2.80;;;8.30;99.90;;;;;;5099406;28;20411;-58
2023/02/12 07:49:29;;;;;;;4.30;2.00;;;8.30;99.90;;;;;;5099156;28;20464;-57
2023/02/12 07:51:57;;;;;;;18.93;5.20;;;8.30;99.90;;;;;;5099337;28;20445;-58
2023/02/12 07:54:24;;;;;;;12.93;3.87;;;8.30;99.90;;;;;;5099205;28;20414;-58
2023/02/12 07:56:51;;;;;;;12.23;4.10;;;8.30;99.90;;;;;;5099310;28;20438;-57
2023/02/12 07:59:20;;;;;;;18.47;3.63;;;8.30;99.90;;;;;;5099207;28;20441;-59
2023/02/12 08:01:50;;;;;;;13.60;3.07;;;8.30;99.90;;;;;;5099228;28;20399;-64
2023/02/12 08:04:20;;;;;;;7.13;2.80;;;8.30;99.90;;;;;;5099180;28;20494;-61
2023/02/12 08:06:49;;;;;;;14.90;4.10;;;8.40;99.90;;;;;;5099323;28;20399;-59
2023/02/12 08:09:20;;;;;;;6.80;3.70;;;8.40;99.90;;;;;;5099131;28;20406;-59
2023/02/12 08:11:50;;;;;;;5.93;2.70;;;8.50;99.90;;;;;;5098749;28;20501;-62
2023/02/12 08:14:21;;;;;;;10.10;3.03;;;8.50;99.90;;;;;;5099118;28;20436;-60
2023/02/12 08:16:49;;;;;;;12.27;4.03;;;8.60;99.90;;;;;;5099103;28;20399;-56
2023/02/12 08:19:16;;;;;;;17.63;3.00;;;8.60;99.90;;;;;;5099029;28;20429;-63
2023/02/12 08:21:46;;;;;;;8.70;2.63;;;8.60;99.90;;;;;;5099049;28;20467;-64
2023/02/12 08:24:17;;;;;;;6.60;3.00;;;8.60;99.90;;;;;;5098924;28;20422;-61
2023/02/12 08:26:45;;;;;;;6.20;2.37;;;8.70;99.90;;;;;;5098938;28;20403;-60
2023/02/12 08:29:15;;;;;;;5.10;4.00;;;8.70;99.90;;;;;;5098905;28;20453;-62
2023/02/12 08:31:52;;;;;;;13.53;4.10;;;8.70;99.90;;;;;;5098971;28;20399;-63
2023/02/12 08:34:21;;;;;;;4.20;2.77;;;8.70;99.90;;;;;;5103109;28;20418;-64
2023/02/12 08:36:49;;;;;;;9.03;2.80;;;8.80;99.90;;;;;;5102905;28;20458;-62
2023/02/12 08:39:17;;;;;;;11.40;3.43;;;8.80;99.90;;;;;;5102910;28;20425;-60
2023/02/12 08:41:48;;;;;;;18.57;4.07;;;8.80;99.90;;;;;;5102877;28;20431;-59
2023/02/12 08:44:18;;;;;;;12.73;4.57;;;8.80;99.90;;;;;;5102922;28;20462;-57
2023/02/12 08:46:50;;;;;;;9.83;2.90;;;8.90;99.90;;;;;;5102758;28;20493;-56
2023/02/12 08:49:20;;;;;;;21.57;4.63;;;8.80;99.90;;;;;;5102897;28;20391;-57
2023/02/12 08:51:49;;;;;;;7.47;4.07;;;8.80;99.90;;;;;;5102561;28;20441;-62
2023/02/12 08:54:17;;;;;;;8.50;3.97;;;8.90;99.90;;;;;;5102789;28;20425;-62
2023/02/12 08:56:46;;;;;;;6.90;3.43;;;8.90;99.90;;;;;;5102496;28;20426;-62
2023/02/12 08:59:15;;;;;;;8.63;4.73;;;8.90;99.90;;;;;;5102553;28;20402;-62
2023/02/12 09:01:51;;;;;;;9.90;4.40;;;8.90;99.90;;;;;;5102490;28;20433;-65
2023/02/12 09:04:20;;;;;;;12.83;3.10;;;9.00;99.90;;;;;;5102548;28;20429;-60
2023/02/12 09:06:48;;;;;;;10.27;2.93;;;9.00;99.90;;;;;;5102228;28;20438;-57
2023/02/12 09:09:18;;;;;;;11.70;3.93;;;9.00;99.90;;;;;;5102275;28;20399;-61
2023/02/12 09:11:45;;;;;;;19.83;4.90;;;9.00;99.90;;;;;;5102200;28;20437;-62
2023/02/12 09:14:14;;;;;;;10.10;5.13;;;9.00;99.90;;;;;;5102310;28;20434;-59
2023/02/12 09:16:45;;;;;;;13.10;4.77;;;9.10;99.90;;;;;;5102166;28;20442;-62
2023/02/12 09:19:16;;;;;;;6.53;2.97;;;9.10;99.90;;;;;;5102022;28;20399;-60
2023/02/12 09:21:43;;;;;;;9.23;2.87;;;9.10;99.90;;;;;;5092509;28;20473;-61
2023/02/12 09:24:10;;;;;;;7.70;2.70;;;9.10;99.90;;;;;;5083270;28;20468;-63
2023/02/12 09:26:38;;;;;;;9.23;2.73;;;9.10;99.90;;;;;;5083135;28;20549;-64
2023/02/12 09:29:05;;;;;;;18.43;9.37;;;9.10;99.90;;;;;;5085760;28;20461;-61
2023/02/12 09:31:36;;;;;;;7.47;2.63;;;9.10;99.90;;;;;;5096311;28;20484;-61
2023/02/12 09:34:05;;;;;;;6.70;4.20;;;9.00;99.90;;;;;;5100301;28;20477;-60
2023/02/12 09:36:34;;;;;;;12.80;3.87;;;9.10;99.90;;;;;;5100338;28;20468;-61
2023/02/12 09:39:02;;;;;;;4.37;2.90;;;9.10;99.90;;;;;;5100428;28;20427;-63
2023/02/12 09:42:00;;;;;;;9.57;3.80;;;9.10;99.90;;;;;;5098966;28;20462;-62
2023/02/12 09:44:36;;;;;;;14.07;3.97;;;9.20;99.90;;;;;;5095428;28;20425;-61
2023/02/12 09:47:06;;;;;;;12.50;3.57;;;9.20;99.90;;;;;;5096811;28;20464;-63
2023/02/12 09:50:01;;;;;;;15.67;5.23;;;9.20;99.90;;;;;;5085477;28;20501;-63
2023/02/12 09:52:30;;;;;;;12.30;3.80;;;9.20;99.90;;;;;;5083459;28;20517;-64
2023/02/12 09:54:58;;;;;;;10.60;4.10;;;9.30;99.90;;;;;;5099215;28;20446;-60
2023/02/12 09:57:30;;;;;;;15.00;5.47;;;9.40;99.90;;;;;;5099442;28;20462;-63
2023/02/12 09:59:59;;;;;;;13.60;6.47;;;9.50;99.90;;;;;;5099434;28;20437;-59
2023/02/12 10:02:26;;;;;;;10.20;4.40;;;9.40;99.90;;;;;;5099161;28;20467;-63
2023/02/12 10:04:59;;;;;;;7.30;3.33;;;9.50;99.90;;;;;;5098831;28;20442;-61
2023/02/12 10:07:48;;;;;;;16.77;6.37;;;8.80;99.90;;;;;;5098748;28;20942;-63
2023/02/12 10:10:28;;;;;;;9.97;3.90;;;9.40;99.90;;;;;;5099484;28;20438;-63
2023/02/12 10:13:02;;;;;;;11.57;3.97;;;9.30;99.90;;;;;;5098407;28;20489;-60
2023/02/12 10:15:47;;;;;;;9.97;3.90;;;9.30;99.90;;;;;;5098469;28;20422;-61
2023/02/12 10:18:41;;;;;;;20.37;5.07;;;9.20;99.90;;;;;;5098153;28;20564;-61
2023/02/12 10:21:20;;;;;;;13.17;5.37;;;9.30;99.90;;;;;;5097054;28;20443;-63
2023/02/12 10:24:03;;;;;;;10.53;4.13;;;9.30;99.90;;;;;;5098342;28;20454;-64
2023/02/12 10:26:32;;;;;;;17.73;5.70;;;9.20;99.90;;;;;;5098860;28;20475;-61
2023/02/12 10:29:11;;;;;;;10.90;4.63;;;9.30;99.90;;;;;;5098911;28;20450;-64
2023/02/12 10:31:42;;;;;;;8.10;3.80;;;9.30;99.90;;;;;;5099408;28;20433;-63
2023/02/12 10:34:17;;;;;;;14.53;4.43;;;9.30;99.90;;;;;;5098679;28;20485;-64
2023/02/12 10:36:47;;;;;;;12.10;4.30;;;9.00;99.90;;;;;;5099246;28;20545;-63
2023/02/12 10:39:21;;;;;;;17.33;3.87;;;9.50;99.90;;;;;;5098299;28;20454;-63
2023/02/12 10:41:56;;;;;;;17.33;4.03;;;9.50;99.90;;;;;;5098237;28;20430;-62
2023/02/12 10:44:23;;;;;;;26.83;11.40;;;9.50;99.90;;;;;;5098398;28;20492;-60
2023/02/12 10:46:52;;;;;;;12.37;4.90;;;9.40;99.90;;;;;;5097399;28;20474;-61
2023/02/12 10:49:20;;;;;;;7.90;3.20;;;9.30;99.90;;;;;;5097825;28;20522;-57
2023/02/12 10:52:05;;;;;;;11.10;5.07;;;9.30;99.90;;;;;;5097604;28;20433;-56
2023/02/12 10:54:40;;;;;;;7.97;3.67;;;9.20;99.90;;;;;;5096908;28;20480;-58
2023/02/12 10:57:14;;;;;;;9.77;3.63;;;9.20;99.90;;;;;;5098049;28;20413;-51
2023/02/12 10:59:42;;;;;;;6.97;5.77;;;9.20;99.90;;;;;;5098011;28;20461;-54
2023/02/12 11:02:22;;;;;;;10.67;3.80;;;9.10;99.90;;;;;;5098892;28;20451;-58
2023/02/12 11:04:49;;;;;;;8.50;4.33;;;9.10;99.90;;;;;;5099384;28;20445;-57
2023/02/12 11:07:17;;;;;;;31.00;5.27;;;9.00;99.90;;;;;;5099046;28;20461;-58
2023/02/12 11:09:47;;;;;;;10.00;3.47;;;9.00;99.90;;;;;;5098879;28;20477;-54
2023/02/12 11:12:20;;;;;;;13.47;4.80;;;8.90;99.90;;;;;;5099286;28;20422;-55
2023/02/12 11:14:52;;;;;;;11.20;2.93;;;8.90;99.90;;;;;;5099145;28;20454;-48
2023/02/12 11:17:25;;;;;;;13.80;5.23;;;9.30;99.90;;;;;;5099093;28;20482;-49
2023/02/12 11:20:22;;;;;;;10.10;4.13;;;8.90;99.90;;;;;;5099446;28;20517;-56
2023/02/12 11:22:52;;;;;;;14.43;3.93;;;8.90;99.90;;;;;;5098642;28;20462;-56
2023/02/12 11:25:22;;;;;;;8.27;4.83;;;8.90;99.90;;;;;;5097356;28;20453;-55
2023/02/12 11:28:04;;;;;;;9.97;4.33;;;8.90;99.90;;;;;;5096705;28;20422;-58
2023/02/12 11:30:37;;;;;;;11.90;3.43;;;8.90;99.90;;;;;;5096702;28;20450;-61
2023/02/12 11:33:33;;;;;;;9.83;4.60;;;8.90;99.90;;;;;;5096588;28;20466;-60
2023/02/12 11:36:03;;;;;;;7.50;3.60;;;8.80;99.90;;;;;;5073312;28;20485;-61
2023/02/12 11:38:36;;;;;;;6.83;3.43;;;8.90;99.90;;;;;;5096480;28;20434;-57
2023/02/12 11:41:19;;;;;;;10.90;3.80;;;8.80;99.90;;;;;;5096491;28;20457;-57
2023/02/12 11:43:51;;;;;;;11.00;4.17;;;8.70;99.90;;;;;;5097271;28;20449;-60
2023/02/12 11:46:21;;;;;;;12.97;4.87;;;8.80;99.90;;;;;;5096744;28;20446;-57
2023/02/12 11:48:48;;;;;;;10.30;5.13;;;8.70;99.90;;;;;;5096553;28;20406;-58
2023/02/12 11:51:22;;;;;;;7.53;4.33;;;8.80;99.90;;;;;;5096418;28;20525;-62
2023/02/12 11:53:51;;;;;;;11.37;5.40;;;8.80;99.90;;;;;;5095491;28;20450;-58
2023/02/12 11:56:20;;;;;;;9.83;4.40;;;8.80;99.90;;;;;;5096078;28;20469;-55
2023/02/12 11:58:49;;;;;;;29.20;4.77;;;8.80;99.90;;;;;;5095923;28;20426;-59
2023/02/12 12:01:21;;;;;;;8.93;4.17;;;8.80;99.90;;;;;;5096584;28;20474;-59
2023/02/12 12:03:56;;;;;;;6.80;3.67;;;8.90;99.90;;;;;;5096122;28;20430;-60
2023/02/12 12:06:29;;;;;;;9.70;5.30;;;8.80;99.90;;;;;;5095182;28;20790;-53
2023/02/12 12:09:04;;;;;;;7.80;4.07;;;8.80;99.90;;;;;;5095551;28;20423;-61
2023/02/12 12:11:38;;;;;;;12.53;5.20;;;8.70;99.90;;;;;;5096128;28;20465;-58
2023/02/12 12:14:14;;;;;;;10.07;5.10;;;8.80;99.90;;;;;;5096218;28;20461;-58
2023/02/12 12:19:53;;;;;;;11.50;5.10;;;8.80;99.90;;;;;;5096108;28;20401;-59
2023/02/12 12:22:50;;;;;;;9.80;4.60;;;8.90;99.90;;;;;;5095439;28;20530;-58
2023/02/12 12:25:23;;;;;;;10.23;3.90;;;9.10;99.90;;;;;;5086592;28;20462;-56
2023/02/12 12:28:04;;;;;;;11.90;4.00;;;9.10;99.90;;;;;;5096097;28;20423;-61
2023/02/12 12:30:41;;;;;;;8.83;3.63;;;9.10;99.90;;;;;;5095976;28;20403;-62
2023/02/12 12:33:16;;;;;;;12.87;4.83;;;9.20;99.90;;;;;;5096277;28;20442;-58
2023/02/12 12:35:51;;;;;;;14.40;5.07;;;9.20;99.90;;;;;;5096644;28;20427;-64
2023/02/12 12:38:29;;;;;;;9.43;3.80;;;9.20;99.90;;;;;;5097146;28;20461;-60
2023/02/12 12:41:04;;;;;;;13.83;3.97;;;9.20;99.90;;;;;;5096559;28;20473;-61
2023/02/12 12:43:48;;;;;;;10.13;4.63;;;9.20;99.90;;;;;;5097416;28;20445;-61
2023/02/12 12:46:50;;;;;;;5.90;3.90;;;9.30;99.90;;;;;;5095971;28;20402;-63
2023/02/12 12:49:48;;;;;;;10.57;6.40;;;9.40;99.90;;;;;;5097067;28;20435;-63
2023/02/12 12:52:48;;;;;;;11.30;5.70;;;9.40;99.90;;;;;;5096789;28;20453;-60
2023/02/12 12:55:45;;;;;;;12.47;6.37;;;9.50;99.90;;;;;;5088389;28;20465;-61
2023/02/12 12:58:23;;;;;;;12.07;6.10;;;9.50;99.90;;;;;;5096671;28;20454;-60
2023/02/12 13:01:06;;;;;;;7.90;4.83;;;9.60;99.90;;;;;;5097129;28;20441;-62
2023/02/12 13:04:04;;;;;;;12.80;5.10;;;9.60;99.90;;;;;;5096766;28;20454;-60
2023/02/12 13:07:03;;;;;;;13.37;6.17;;;9.60;99.90;;;;;;5096210;28;20414;-61
2023/02/12 13:09:57;;;;;;;11.47;5.10;;;9.60;99.90;;;;;;5096801;28;20430;-63
2023/02/12 13:12:34;;;;;;;12.20;5.90;;;9.70;99.90;;;;;;5096647;28;20471;-62
2023/02/12 13:15:08;;;;;;;15.10;5.13;;;9.60;99.90;;;;;;5096134;28;20466;-63
2023/02/12 13:17:44;;;;;;;16.60;6.60;;;9.70;99.90;;;;;;5096187;28;20469;-62
2023/02/12 13:20:19;;;;;;;8.67;5.07;;;9.60;99.90;;;;;;5095153;28;20422;-60